sensor_id;sensor_type;location;lat;lon;timestamp;temperature;humidity
69715;HTU21D;56981;53.532;49.398;2023-05-10T00:00:44;6.25;49.48
69715;HTU21D;56981;53.532;49.398;2023-05-10T00:03:10;6.21;49.31
69715;HTU21D;56981;53.532;49.398;2023-05-10T00:05:36;6.19;49.73
69715;HTU21D;56981;53.532;49.398;2023-05-10T00:08:02;6.17;49.37
69715;HTU21D;56981;53.532;49.398;2023-05-10T00:10:28;6.16;50.05
69715;HTU21D;56981;53.532;49.398;2023-05-10T00:12:54;6.14;49.49
69715;HTU21D;56981;53.532;49.398;2023-05-10T00:15:20;6.14;49.71
69715;HTU21D;56981;53.532;49.398;2023-05-10T00:17:47;6.13;49.57
69715;HTU21D;56981;53.532;49.398;2023-05-10T00:20:13;6.11;49.54
69715;HTU21D;56981;53.532;49.398;2023-05-10T00:22:39;6.10;50.26
69715;HTU21D;56981;53.532;49.398;2023-05-10T00:25:09;6.09;50.36
69715;HTU21D;56981;53.532;49.398;2023-05-10T00:27:36;6.05;50.53
69715;HTU21D;56981;53.532;49.398;2023-05-10T00:30:02;6.05;50.85
69715;HTU21D;56981;53.532;49.398;2023-05-10T00:32:28;6.00;51.14
69715;HTU21D;56981;53.532;49.398;2023-05-10T00:34:54;5.98;50.95
69715;HTU21D;56981;53.532;49.398;2023-05-10T00:37:20;5.93;51.08
69715;HTU21D;56981;53.532;49.398;2023-05-10T00:39:46;5.92;50.99
69715;HTU21D;56981;53.532;49.398;2023-05-10T00:42:12;5.92;51.10
69715;HTU21D;56981;53.532;49.398;2023-05-10T00:44:38;5.94;50.16
69715;HTU21D;56981;53.532;49.398;2023-05-10T00:47:04;5.94;50.72
69715;HTU21D;56981;53.532;49.398;2023-05-10T00:49:31;5.96;50.02
69715;HTU21D;56981;53.532;49.398;2023-05-10T00:51:57;5.97;49.63
69715;HTU21D;56981;53.532;49.398;2023-05-10T00:54:24;6.02;49.24
69715;HTU21D;56981;53.532;49.398;2023-05-10T00:56:51;6.08;49.05
69715;HTU21D;56981;53.532;49.398;2023-05-10T00:59:18;6.12;48.71
69715;HTU21D;56981;53.532;49.398;2023-05-10T01:01:45;6.17;48.70
69715;HTU21D;56981;53.532;49.398;2023-05-10T01:04:12;6.28;48.73
69715;HTU21D;56981;53.532;49.398;2023-05-10T01:06:40;6.34;48.47
69715;HTU21D;56981;53.532;49.398;2023-05-10T01:09:06;6.35;47.83
69715;HTU21D;56981;53.532;49.398;2023-05-10T01:11:34;6.51;47.49
69715;HTU21D;56981;53.532;49.398;2023-05-10T01:14:01;6.59;47.31
69715;HTU21D;56981;53.532;49.398;2023-05-10T01:16:29;6.69;46.88
69715;HTU21D;56981;53.532;49.398;2023-05-10T01:18:58;6.83;46.75
69715;HTU21D;56981;53.532;49.398;2023-05-10T01:21:43;7.46;45.25
69715;HTU21D;56981;53.532;49.398;2023-05-10T01:36:03;10.55;36.52
69715;HTU21D;56981;53.532;49.398;2023-05-10T01:38:45;10.05;38.49
69715;HTU21D;56981;53.532;49.398;2023-05-10T01:41:30;9.50;38.87
69715;HTU21D;56981;53.532;49.398;2023-05-10T01:46:40;8.78;40.90
69715;HTU21D;56981;53.532;49.398;2023-05-10T01:49:14;8.67;41.60
69715;HTU21D;56981;53.532;49.398;2023-05-10T01:51:50;8.56;41.78
69715;HTU21D;56981;53.532;49.398;2023-05-10T01:54:19;8.55;42.32
69715;HTU21D;56981;53.532;49.398;2023-05-10T01:56:50;8.53;42.27
69715;HTU21D;56981;53.532;49.398;2023-05-10T01:59:19;8.67;42.24
69715;HTU21D;56981;53.532;49.398;2023-05-10T02:01:47;8.74;42.08
69715;HTU21D;56981;53.532;49.398;2023-05-10T02:04:16;8.78;42.37
69715;HTU21D;56981;53.532;49.398;2023-05-10T02:06:43;8.61;42.87
69715;HTU21D;56981;53.532;49.398;2023-05-10T02:09:11;8.60;42.68
69715;HTU21D;56981;53.532;49.398;2023-05-10T02:11:39;8.50;43.27
69715;HTU21D;56981;53.532;49.398;2023-05-10T02:14:09;8.44;43.57
69715;HTU21D;56981;53.532;49.398;2023-05-10T02:16:38;8.41;44.16
69715;HTU21D;56981;53.532;49.398;2023-05-10T02:19:05;8.41;44.45
69715;HTU21D;56981;53.532;49.398;2023-05-10T02:21:33;8.41;44.83
69715;HTU21D;56981;53.532;49.398;2023-05-10T02:24:02;8.45;43.70
69715;HTU21D;56981;53.532;49.398;2023-05-10T02:26:29;8.51;43.12
69715;HTU21D;56981;53.532;49.398;2023-05-10T02:28:57;8.55;43.22
69715;HTU21D;56981;53.532;49.398;2023-05-10T02:31:24;8.63;42.73
69715;HTU21D;56981;53.532;49.398;2023-05-10T02:33:52;8.70;42.69
69715;HTU21D;56981;53.532;49.398;2023-05-10T02:36:21;8.78;42.73
69715;HTU21D;56981;53.532;49.398;2023-05-10T02:38:48;8.77;42.26
69715;HTU21D;56981;53.532;49.398;2023-05-10T02:41:16;8.85;41.99
69715;HTU21D;56981;53.532;49.398;2023-05-10T02:43:43;8.92;41.94
69715;HTU21D;56981;53.532;49.398;2023-05-10T02:46:10;8.96;41.13
69715;HTU21D;56981;53.532;49.398;2023-05-10T02:48:36;9.00;42.03
69715;HTU21D;56981;53.532;49.398;2023-05-10T02:51:05;9.02;41.25
69715;HTU21D;56981;53.532;49.398;2023-05-10T02:53:35;9.10;40.96
69715;HTU21D;56981;53.532;49.398;2023-05-10T02:56:05;9.23;41.27
69715;HTU21D;56981;53.532;49.398;2023-05-10T02:58:35;9.35;40.63
69715;HTU21D;56981;53.532;49.398;2023-05-10T03:01:01;9.38;40.59
69715;HTU21D;56981;53.532;49.398;2023-05-10T03:03:27;9.53;39.77
69715;HTU21D;56981;53.532;49.398;2023-05-10T03:05:53;9.69;39.43
69715;HTU21D;56981;53.532;49.398;2023-05-10T03:08:22;9.78;39.11
69715;HTU21D;56981;53.532;49.398;2023-05-10T03:14:02;9.98;39.14
69715;HTU21D;56981;53.532;49.398;2023-05-10T03:19:33;10.22;38.29
69715;HTU21D;56981;53.532;49.398;2023-05-10T03:22:06;10.29;38.91
69715;HTU21D;56981;53.532;49.398;2023-05-10T03:24:35;10.30;38.40
69715;HTU21D;56981;53.532;49.398;2023-05-10T03:27:03;10.46;37.34
69715;HTU21D;56981;53.532;49.398;2023-05-10T03:29:31;10.59;37.98
69715;HTU21D;56981;53.532;49.398;2023-05-10T03:32:00;10.67;36.52
69715;HTU21D;56981;53.532;49.398;2023-05-10T03:34:26;10.66;37.01
69715;HTU21D;56981;53.532;49.398;2023-05-10T03:36:52;10.60;37.33
69715;HTU21D;56981;53.532;49.398;2023-05-10T03:39:18;10.67;37.03
69715;HTU21D;56981;53.532;49.398;2023-05-10T03:41:45;10.73;36.98
69715;HTU21D;56981;53.532;49.398;2023-05-10T03:44:11;10.83;37.94
69715;HTU21D;56981;53.532;49.398;2023-05-10T03:46:37;10.95;37.28
69715;HTU21D;56981;53.532;49.398;2023-05-10T03:49:03;11.05;36.74
69715;HTU21D;56981;53.532;49.398;2023-05-10T03:51:29;11.01;37.06
69715;HTU21D;56981;53.532;49.398;2023-05-10T03:53:56;11.07;37.37
69715;HTU21D;56981;53.532;49.398;2023-05-10T03:56:22;11.25;37.46
69715;HTU21D;56981;53.532;49.398;2023-05-10T03:58:49;11.42;36.55
69715;HTU21D;56981;53.532;49.398;2023-05-10T04:01:15;11.59;36.05
69715;HTU21D;56981;53.532;49.398;2023-05-10T04:03:41;11.57;35.55
69715;HTU21D;56981;53.532;49.398;2023-05-10T04:06:07;11.64;36.95
69715;HTU21D;56981;53.532;49.398;2023-05-10T04:08:34;11.77;35.28
69715;HTU21D;56981;53.532;49.398;2023-05-10T04:11:07;11.85;34.58
69715;HTU21D;56981;53.532;49.398;2023-05-10T04:13:34;11.94;35.15
69715;HTU21D;56981;53.532;49.398;2023-05-10T04:16:00;11.94;34.92
69715;HTU21D;56981;53.532;49.398;2023-05-10T04:18:27;12.19;34.28
69715;HTU21D;56981;53.532;49.398;2023-05-10T04:20:53;12.16;33.60
69715;HTU21D;56981;53.532;49.398;2023-05-10T04:23:19;12.23;33.38
69715;HTU21D;56981;53.532;49.398;2023-05-10T04:25:45;12.36;33.53
69715;HTU21D;56981;53.532;49.398;2023-05-10T04:28:11;12.44;32.77
69715;HTU21D;56981;53.532;49.398;2023-05-10T04:30:37;12.55;32.55
69715;HTU21D;56981;53.532;49.398;2023-05-10T04:33:03;12.63;32.73
69715;HTU21D;56981;53.532;49.398;2023-05-10T04:35:29;12.87;32.35
69715;HTU21D;56981;53.532;49.398;2023-05-10T04:37:55;13.07;31.27
69715;HTU21D;56981;53.532;49.398;2023-05-10T04:40:21;13.36;31.76
69715;HTU21D;56981;53.532;49.398;2023-05-10T04:42:47;13.56;30.49
69715;HTU21D;56981;53.532;49.398;2023-05-10T04:45:13;13.75;30.30
69715;HTU21D;56981;53.532;49.398;2023-05-10T04:47:42;13.84;30.44
69715;HTU21D;56981;53.532;49.398;2023-05-10T04:50:09;14.08;29.94
69715;HTU21D;56981;53.532;49.398;2023-05-10T04:52:35;14.20;29.24
69715;HTU21D;56981;53.532;49.398;2023-05-10T04:55:02;14.48;29.46
69715;HTU21D;56981;53.532;49.398;2023-05-10T04:57:28;14.66;28.68
69715;HTU21D;56981;53.532;49.398;2023-05-10T04:59:54;15.03;28.10
69715;HTU21D;56981;53.532;49.398;2023-05-10T05:02:20;15.45;27.62
69715;HTU21D;56981;53.532;49.398;2023-05-10T05:04:47;15.66;27.11
69715;HTU21D;56981;53.532;49.398;2023-05-10T05:07:13;16.05;26.49
69715;HTU21D;56981;53.532;49.398;2023-05-10T05:09:39;16.45;25.74
69715;HTU21D;56981;53.532;49.398;2023-05-10T05:12:05;16.55;25.37
69715;HTU21D;56981;53.532;49.398;2023-05-10T05:14:31;16.69;25.69
69715;HTU21D;56981;53.532;49.398;2023-05-10T05:16:57;16.84;25.38
69715;HTU21D;56981;53.532;49.398;2023-05-10T05:19:23;17.10;25.17
69715;HTU21D;56981;53.532;49.398;2023-05-10T05:21:49;17.69;24.27
69715;HTU21D;56981;53.532;49.398;2023-05-10T05:24:16;17.95;23.72
69715;HTU21D;56981;53.532;49.398;2023-05-10T05:26:42;18.52;23.06
69715;HTU21D;56981;53.532;49.398;2023-05-10T05:29:08;18.92;22.27
69715;HTU21D;56981;53.532;49.398;2023-05-10T05:31:35;19.14;21.47
69715;HTU21D;56981;53.532;49.398;2023-05-10T05:34:01;19.11;21.29
69715;HTU21D;56981;53.532;49.398;2023-05-10T05:36:27;19.29;21.05
69715;HTU21D;56981;53.532;49.398;2023-05-10T05:38:54;19.57;21.04
69715;HTU21D;56981;53.532;49.398;2023-05-10T05:41:20;19.92;20.15
69715;HTU21D;56981;53.532;49.398;2023-05-10T05:43:47;19.95;19.38
69715;HTU21D;56981;53.532;49.398;2023-05-10T05:46:13;19.86;20.11
69715;HTU21D;56981;53.532;49.398;2023-05-10T05:48:40;20.41;19.15
69715;HTU21D;56981;53.532;49.398;2023-05-10T05:51:06;21.57;18.78
69715;HTU21D;56981;53.532;49.398;2023-05-10T05:53:32;22.13;17.09
69715;HTU21D;56981;53.532;49.398;2023-05-10T05:55:59;22.31;17.19
69715;HTU21D;56981;53.532;49.398;2023-05-10T05:58:25;22.61;16.57
69715;HTU21D;56981;53.532;49.398;2023-05-10T06:00:52;22.73;15.03
69715;HTU21D;56981;53.532;49.398;2023-05-10T06:03:18;23.08;15.01
69715;HTU21D;56981;53.532;49.398;2023-05-10T06:05:45;23.07;15.00
69715;HTU21D;56981;53.532;49.398;2023-05-10T06:08:11;22.51;15.99
69715;HTU21D;56981;53.532;49.398;2023-05-10T06:10:37;22.20;15.90
69715;HTU21D;56981;53.532;49.398;2023-05-10T06:13:04;22.49;15.58
69715;HTU21D;56981;53.532;49.398;2023-05-10T06:15:30;22.41;15.37
69715;HTU21D;56981;53.532;49.398;2023-05-10T06:17:56;22.47;15.10
69715;HTU21D;56981;53.532;49.398;2023-05-10T06:20:22;22.85;15.53
69715;HTU21D;56981;53.532;49.398;2023-05-10T06:22:49;22.98;15.08
69715;HTU21D;56981;53.532;49.398;2023-05-10T06:25:16;23.01;14.05
69715;HTU21D;56981;53.532;49.398;2023-05-10T06:27:44;23.10;14.81
69715;HTU21D;56981;53.532;49.398;2023-05-10T06:30:11;23.44;13.98
69715;HTU21D;56981;53.532;49.398;2023-05-10T06:32:39;23.73;14.02
69715;HTU21D;56981;53.532;49.398;2023-05-10T06:35:06;23.50;14.18
69715;HTU21D;56981;53.532;49.398;2023-05-10T06:37:32;23.77;13.49
69715;HTU21D;56981;53.532;49.398;2023-05-10T06:39:58;23.34;14.70
69715;HTU21D;56981;53.532;49.398;2023-05-10T06:42:25;23.61;14.15
69715;HTU21D;56981;53.532;49.398;2023-05-10T06:44:51;23.96;13.77
69715;HTU21D;56981;53.532;49.398;2023-05-10T06:47:17;23.71;13.13
69715;HTU21D;56981;53.532;49.398;2023-05-10T06:49:44;23.09;13.61
69715;HTU21D;56981;53.532;49.398;2023-05-10T06:52:10;23.40;12.88
69715;HTU21D;56981;53.532;49.398;2023-05-10T06:54:36;23.44;12.75
69715;HTU21D;56981;53.532;49.398;2023-05-10T06:57:03;23.16;13.44
69715;HTU21D;56981;53.532;49.398;2023-05-10T06:59:30;22.93;13.92
69715;HTU21D;56981;53.532;49.398;2023-05-10T07:01:56;22.73;13.49
69715;HTU21D;56981;53.532;49.398;2023-05-10T07:04:22;22.93;13.52
69715;HTU21D;56981;53.532;49.398;2023-05-10T07:06:48;23.12;13.68
69715;HTU21D;56981;53.532;49.398;2023-05-10T07:09:15;22.95;13.22
69715;HTU21D;56981;53.532;49.398;2023-05-10T07:11:41;23.05;12.71
69715;HTU21D;56981;53.532;49.398;2023-05-10T07:14:08;23.27;13.29
69715;HTU21D;56981;53.532;49.398;2023-05-10T07:16:34;23.20;12.77
69715;HTU21D;56981;53.532;49.398;2023-05-10T07:19:00;23.24;13.91
69715;HTU21D;56981;53.532;49.398;2023-05-10T07:21:26;22.69;12.55
69715;HTU21D;56981;53.532;49.398;2023-05-10T07:23:54;22.71;13.26
69715;HTU21D;56981;53.532;49.398;2023-05-10T07:26:20;22.41;14.25
69715;HTU21D;56981;53.532;49.398;2023-05-10T07:28:46;22.08;14.14
69715;HTU21D;56981;53.532;49.398;2023-05-10T07:31:12;21.99;14.21
69715;HTU21D;56981;53.532;49.398;2023-05-10T07:33:38;22.06;14.05
69715;HTU21D;56981;53.532;49.398;2023-05-10T07:36:04;22.02;14.09
69715;HTU21D;56981;53.532;49.398;2023-05-10T07:38:30;21.29;15.10
69715;HTU21D;56981;53.532;49.398;2023-05-10T07:40:57;20.89;15.29
69715;HTU21D;56981;53.532;49.398;2023-05-10T07:43:23;21.17;14.71
69715;HTU21D;56981;53.532;49.398;2023-05-10T07:45:49;21.43;14.71
69715;HTU21D;56981;53.532;49.398;2023-05-10T07:48:15;21.59;15.64
69715;HTU21D;56981;53.532;49.398;2023-05-10T07:50:41;22.06;14.26
69715;HTU21D;56981;53.532;49.398;2023-05-10T07:53:07;22.03;13.94
69715;HTU21D;56981;53.532;49.398;2023-05-10T07:55:33;21.95;13.78
69715;HTU21D;56981;53.532;49.398;2023-05-10T07:57:59;21.64;14.16
69715;HTU21D;56981;53.532;49.398;2023-05-10T08:00:26;21.73;14.56
69715;HTU21D;56981;53.532;49.398;2023-05-10T08:02:53;21.99;14.07
69715;HTU21D;56981;53.532;49.398;2023-05-10T08:05:19;22.28;13.19
69715;HTU21D;56981;53.532;49.398;2023-05-10T08:07:45;22.04;13.97
69715;HTU21D;56981;53.532;49.398;2023-05-10T08:10:11;21.96;14.25
69715;HTU21D;56981;53.532;49.398;2023-05-10T08:12:37;22.46;14.61
69715;HTU21D;56981;53.532;49.398;2023-05-10T08:15:04;22.70;14.28
69715;HTU21D;56981;53.532;49.398;2023-05-10T08:17:30;22.26;13.60
69715;HTU21D;56981;53.532;49.398;2023-05-10T08:19:57;21.79;14.60
69715;HTU21D;56981;53.532;49.398;2023-05-10T08:22:23;21.74;14.65
69715;HTU21D;56981;53.532;49.398;2023-05-10T08:24:49;22.02;15.26
69715;HTU21D;56981;53.532;49.398;2023-05-10T08:27:14;21.67;16.13
69715;HTU21D;56981;53.532;49.398;2023-05-10T08:29:41;21.53;15.06
69715;HTU21D;56981;53.532;49.398;2023-05-10T08:32:07;21.45;14.87
69715;HTU21D;56981;53.532;49.398;2023-05-10T08:34:33;21.55;14.98
69715;HTU21D;56981;53.532;49.398;2023-05-10T08:36:59;21.35;15.25
69715;HTU21D;56981;53.532;49.398;2023-05-10T08:39:25;21.37;15.41
69715;HTU21D;56981;53.532;49.398;2023-05-10T08:41:51;21.55;14.86
69715;HTU21D;56981;53.532;49.398;2023-05-10T08:44:18;21.60;14.58
69715;HTU21D;56981;53.532;49.398;2023-05-10T08:46:46;21.33;16.21
69715;HTU21D;56981;53.532;49.398;2023-05-10T08:49:17;21.00;15.77
69715;HTU21D;56981;53.532;49.398;2023-05-10T08:51:50;21.14;16.10
69715;HTU21D;56981;53.532;49.398;2023-05-10T08:54:17;21.04;16.51
69715;HTU21D;56981;53.532;49.398;2023-05-10T08:56:43;20.65;16.33
69715;HTU21D;56981;53.532;49.398;2023-05-10T08:59:09;20.41;16.89
69715;HTU21D;56981;53.532;49.398;2023-05-10T09:01:36;20.31;16.64
69715;HTU21D;56981;53.532;49.398;2023-05-10T09:04:04;20.50;16.29
69715;HTU21D;56981;53.532;49.398;2023-05-10T09:06:30;20.30;16.24
69715;HTU21D;56981;53.532;49.398;2023-05-10T09:08:56;20.22;18.08
69715;HTU21D;56981;53.532;49.398;2023-05-10T09:11:22;20.16;18.48
69715;HTU21D;56981;53.532;49.398;2023-05-10T09:13:50;20.56;16.70
69715;HTU21D;56981;53.532;49.398;2023-05-10T09:16:17;20.34;16.95
69715;HTU21D;56981;53.532;49.398;2023-05-10T09:18:43;20.03;17.87
69715;HTU21D;56981;53.532;49.398;2023-05-10T09:21:09;19.75;17.85
69715;HTU21D;56981;53.532;49.398;2023-05-10T09:23:36;19.77;17.57
69715;HTU21D;56981;53.532;49.398;2023-05-10T09:26:03;19.94;17.65
69715;HTU21D;56981;53.532;49.398;2023-05-10T09:28:56;20.22;16.55
69715;HTU21D;56981;53.532;49.398;2023-05-10T09:31:22;20.24;16.71
69715;HTU21D;56981;53.532;49.398;2023-05-10T09:33:50;20.15;17.46
69715;HTU21D;56981;53.532;49.398;2023-05-10T09:36:17;19.54;17.91
69715;HTU21D;56981;53.532;49.398;2023-05-10T09:41:21;19.74;18.54
69715;HTU21D;56981;53.532;49.398;2023-05-10T09:43:47;19.85;17.96
69715;HTU21D;56981;53.532;49.398;2023-05-10T09:46:15;19.96;18.85
69715;HTU21D;56981;53.532;49.398;2023-05-10T09:48:47;19.88;17.51
69715;HTU21D;56981;53.532;49.398;2023-05-10T09:51:24;19.83;17.56
69715;HTU21D;56981;53.532;49.398;2023-05-10T09:54:09;19.96;17.29
69715;HTU21D;56981;53.532;49.398;2023-05-10T09:56:36;19.89;17.40
69715;HTU21D;56981;53.532;49.398;2023-05-10T09:59:05;19.86;17.76
69715;HTU21D;56981;53.532;49.398;2023-05-10T10:01:31;19.91;17.32
69715;HTU21D;56981;53.532;49.398;2023-05-10T10:03:58;19.97;17.49
69715;HTU21D;56981;53.532;49.398;2023-05-10T10:06:24;20.01;17.83
69715;HTU21D;56981;53.532;49.398;2023-05-10T10:08:51;20.09;18.00
69715;HTU21D;56981;53.532;49.398;2023-05-10T10:11:18;20.22;18.28
69715;HTU21D;56981;53.532;49.398;2023-05-10T10:13:44;20.14;18.12
69715;HTU21D;56981;53.532;49.398;2023-05-10T10:16:10;20.06;17.31
69715;HTU21D;56981;53.532;49.398;2023-05-10T10:18:36;19.67;17.13
69715;HTU21D;56981;53.532;49.398;2023-05-10T10:21:12;19.46;17.84
69715;HTU21D;56981;53.532;49.398;2023-05-10T10:23:39;19.42;17.68
69715;HTU21D;56981;53.532;49.398;2023-05-10T10:26:05;19.60;18.21
69715;HTU21D;56981;53.532;49.398;2023-05-10T10:34:06;19.41;17.20
69715;HTU21D;56981;53.532;49.398;2023-05-10T10:36:46;19.26;17.08
69715;HTU21D;56981;53.532;49.398;2023-05-10T10:39:14;19.48;17.61
69715;HTU21D;56981;53.532;49.398;2023-05-10T10:41:49;19.50;17.32
69715;HTU21D;56981;53.532;49.398;2023-05-10T10:47:22;19.74;17.57
69715;HTU21D;56981;53.532;49.398;2023-05-10T11:00:24;19.06;18.11
69715;HTU21D;56981;53.532;49.398;2023-05-10T11:02:53;19.09;17.56
69715;HTU21D;56981;53.532;49.398;2023-05-10T11:07:56;18.92;18.80
69715;HTU21D;56981;53.532;49.398;2023-05-10T11:10:23;18.80;18.59
69715;HTU21D;56981;53.532;49.398;2023-05-10T11:13:02;18.78;18.30
69715;HTU21D;56981;53.532;49.398;2023-05-10T11:15:33;18.96;19.22
69715;HTU21D;56981;53.532;49.398;2023-05-10T11:17:59;19.17;19.12
69715;HTU21D;56981;53.532;49.398;2023-05-10T11:20:29;19.23;18.06
69715;HTU21D;56981;53.532;49.398;2023-05-10T11:23:11;19.32;18.06
69715;HTU21D;56981;53.532;49.398;2023-05-10T11:25:42;19.42;16.80
69715;HTU21D;56981;53.532;49.398;2023-05-10T11:28:10;19.62;17.61
69715;HTU21D;56981;53.532;49.398;2023-05-10T11:30:38;19.84;16.90
69715;HTU21D;56981;53.532;49.398;2023-05-10T11:33:08;19.79;17.16
69715;HTU21D;56981;53.532;49.398;2023-05-10T11:35:43;19.85;16.78
69715;HTU21D;56981;53.532;49.398;2023-05-10T11:38:11;19.91;17.93
69715;HTU21D;56981;53.532;49.398;2023-05-10T11:40:37;19.94;17.35
69715;HTU21D;56981;53.532;49.398;2023-05-10T11:43:04;19.65;17.40
69715;HTU21D;56981;53.532;49.398;2023-05-10T11:45:35;19.59;18.31
69715;HTU21D;56981;53.532;49.398;2023-05-10T11:48:02;19.56;17.90
69715;HTU21D;56981;53.532;49.398;2023-05-10T11:50:28;19.59;17.22
69715;HTU21D;56981;53.532;49.398;2023-05-10T11:52:55;19.57;18.03
69715;HTU21D;56981;53.532;49.398;2023-05-10T11:55:22;19.66;17.57
69715;HTU21D;56981;53.532;49.398;2023-05-10T11:58:00;19.65;18.65
69715;HTU21D;56981;53.532;49.398;2023-05-10T12:00:26;19.76;19.29
69715;HTU21D;56981;53.532;49.398;2023-05-10T12:02:52;19.70;18.31
69715;HTU21D;56981;53.532;49.398;2023-05-10T12:05:18;19.67;19.14
69715;HTU21D;56981;53.532;49.398;2023-05-10T12:07:44;19.59;18.62
69715;HTU21D;56981;53.532;49.398;2023-05-10T12:10:12;19.62;17.94
69715;HTU21D;56981;53.532;49.398;2023-05-10T12:12:42;19.74;17.41
69715;HTU21D;56981;53.532;49.398;2023-05-10T12:15:19;19.74;17.72
69715;HTU21D;56981;53.532;49.398;2023-05-10T12:17:46;19.71;17.97
69715;HTU21D;56981;53.532;49.398;2023-05-10T12:20:23;19.68;17.72
69715;HTU21D;56981;53.532;49.398;2023-05-10T12:22:50;19.63;18.28
69715;HTU21D;56981;53.532;49.398;2023-05-10T12:25:18;19.52;18.22
69715;HTU21D;56981;53.532;49.398;2023-05-10T12:27:54;19.44;18.08
69715;HTU21D;56981;53.532;49.398;2023-05-10T12:30:31;19.46;18.89
69715;HTU21D;56981;53.532;49.398;2023-05-10T12:33:14;19.26;18.65
69715;HTU21D;56981;53.532;49.398;2023-05-10T12:35:47;19.21;18.67
69715;HTU21D;56981;53.532;49.398;2023-05-10T12:38:32;19.28;19.33
69715;HTU21D;56981;53.532;49.398;2023-05-10T12:40:59;19.46;18.94
69715;HTU21D;56981;53.532;49.398;2023-05-10T12:43:26;19.41;18.67
69715;HTU21D;56981;53.532;49.398;2023-05-10T12:45:52;19.46;18.71
69715;HTU21D;56981;53.532;49.398;2023-05-10T12:48:19;19.22;18.52
69715;HTU21D;56981;53.532;49.398;2023-05-10T12:50:46;19.25;18.30
69715;HTU21D;56981;53.532;49.398;2023-05-10T12:53:16;19.39;18.61
69715;HTU21D;56981;53.532;49.398;2023-05-10T12:55:43;19.35;18.83
69715;HTU21D;56981;53.532;49.398;2023-05-10T12:58:09;19.46;18.89
69715;HTU21D;56981;53.532;49.398;2023-05-10T13:00:35;19.51;18.43
69715;HTU21D;56981;53.532;49.398;2023-05-10T13:03:04;19.38;18.35
69715;HTU21D;56981;53.532;49.398;2023-05-10T13:05:32;19.37;18.27
69715;HTU21D;56981;53.532;49.398;2023-05-10T13:07:59;19.45;18.46
69715;HTU21D;56981;53.532;49.398;2023-05-10T13:10:25;19.35;19.73
69715;HTU21D;56981;53.532;49.398;2023-05-10T13:12:51;19.30;18.89
69715;HTU21D;56981;53.532;49.398;2023-05-10T13:15:17;19.36;18.70
69715;HTU21D;56981;53.532;49.398;2023-05-10T13:17:43;19.20;18.97
69715;HTU21D;56981;53.532;49.398;2023-05-10T13:20:11;19.05;19.11
69715;HTU21D;56981;53.532;49.398;2023-05-10T13:22:37;19.13;19.06
69715;HTU21D;56981;53.532;49.398;2023-05-10T13:25:04;19.11;19.17
69715;HTU21D;56981;53.532;49.398;2023-05-10T13:27:30;19.06;18.69
69715;HTU21D;56981;53.532;49.398;2023-05-10T13:29:59;18.97;18.67
69715;HTU21D;56981;53.532;49.398;2023-05-10T13:32:26;19.13;18.73
69715;HTU21D;56981;53.532;49.398;2023-05-10T13:34:52;19.15;18.69
69715;HTU21D;56981;53.532;49.398;2023-05-10T13:37:18;19.12;18.84
69715;HTU21D;56981;53.532;49.398;2023-05-10T13:39:45;18.91;20.73
69715;HTU21D;56981;53.532;49.398;2023-05-10T13:42:11;18.93;21.32
69715;HTU21D;56981;53.532;49.398;2023-05-10T13:44:37;18.97;21.90
69715;HTU21D;56981;53.532;49.398;2023-05-10T13:47:05;18.93;20.82
69715;HTU21D;56981;53.532;49.398;2023-05-10T13:49:31;18.88;20.86
69715;HTU21D;56981;53.532;49.398;2023-05-10T13:51:57;18.82;21.02
69715;HTU21D;56981;53.532;49.398;2023-05-10T13:54:24;18.59;20.26
69715;HTU21D;56981;53.532;49.398;2023-05-10T13:56:50;18.47;20.41
69715;HTU21D;56981;53.532;49.398;2023-05-10T13:59:16;18.38;21.31
69715;HTU21D;56981;53.532;49.398;2023-05-10T14:01:43;18.34;21.40
69715;HTU21D;56981;53.532;49.398;2023-05-10T14:04:09;18.24;21.58
69715;HTU21D;56981;53.532;49.398;2023-05-10T14:06:36;18.14;21.79
69715;HTU21D;56981;53.532;49.398;2023-05-10T14:09:03;18.06;21.34
69715;HTU21D;56981;53.532;49.398;2023-05-10T14:11:29;18.05;21.79
69715;HTU21D;56981;53.532;49.398;2023-05-10T14:13:56;17.98;22.09
69715;HTU21D;56981;53.532;49.398;2023-05-10T14:16:22;17.93;21.41
69715;HTU21D;56981;53.532;49.398;2023-05-10T14:18:48;17.84;21.42
69715;HTU21D;56981;53.532;49.398;2023-05-10T14:21:15;17.90;22.17
69715;HTU21D;56981;53.532;49.398;2023-05-10T14:23:41;17.89;21.95
69715;HTU21D;56981;53.532;49.398;2023-05-10T14:26:07;17.80;21.94
69715;HTU21D;56981;53.532;49.398;2023-05-10T14:28:34;17.76;22.27
69715;HTU21D;56981;53.532;49.398;2023-05-10T14:31:00;17.74;22.36
69715;HTU21D;56981;53.532;49.398;2023-05-10T14:33:27;17.75;22.41
69715;HTU21D;56981;53.532;49.398;2023-05-10T14:35:54;17.65;22.24
69715;HTU21D;56981;53.532;49.398;2023-05-10T14:38:22;17.59;22.34
69715;HTU21D;56981;53.532;49.398;2023-05-10T14:40:49;17.50;22.15
69715;HTU21D;56981;53.532;49.398;2023-05-10T14:43:15;17.49;22.83
69715;HTU21D;56981;53.532;49.398;2023-05-10T14:45:46;17.53;22.68
69715;HTU21D;56981;53.532;49.398;2023-05-10T14:48:18;17.56;23.34
69715;HTU21D;56981;53.532;49.398;2023-05-10T14:50:49;17.56;24.43
69715;HTU21D;56981;53.532;49.398;2023-05-10T14:53:16;17.53;23.82
69715;HTU21D;56981;53.532;49.398;2023-05-10T14:55:42;17.45;24.49
69715;HTU21D;56981;53.532;49.398;2023-05-10T14:58:09;17.35;23.54
69715;HTU21D;56981;53.532;49.398;2023-05-10T15:00:35;17.31;24.82
69715;HTU21D;56981;53.532;49.398;2023-05-10T15:03:01;17.26;25.00
69715;HTU21D;56981;53.532;49.398;2023-05-10T15:05:28;17.22;24.82
69715;HTU21D;56981;53.532;49.398;2023-05-10T15:07:54;17.11;25.03
69715;HTU21D;56981;53.532;49.398;2023-05-10T15:10:25;17.00;25.23
69715;HTU21D;56981;53.532;49.398;2023-05-10T15:12:52;17.02;25.84
69715;HTU21D;56981;53.532;49.398;2023-05-10T15:15:23;17.02;26.62
69715;HTU21D;56981;53.532;49.398;2023-05-10T15:17:49;16.95;25.82
69715;HTU21D;56981;53.532;49.398;2023-05-10T15:20:16;16.91;26.62
69715;HTU21D;56981;53.532;49.398;2023-05-10T15:22:42;16.82;26.20
69715;HTU21D;56981;53.532;49.398;2023-05-10T15:25:08;16.74;25.86
69715;HTU21D;56981;53.532;49.398;2023-05-10T15:27:35;16.70;26.23
69715;HTU21D;56981;53.532;49.398;2023-05-10T15:30:01;16.71;27.12
69715;HTU21D;56981;53.532;49.398;2023-05-10T15:32:27;16.59;26.07
69715;HTU21D;56981;53.532;49.398;2023-05-10T15:34:55;16.52;26.46
69715;HTU21D;56981;53.532;49.398;2023-05-10T15:37:21;16.45;26.84
69715;HTU21D;56981;53.532;49.398;2023-05-10T15:39:49;16.36;26.52
69715;HTU21D;56981;53.532;49.398;2023-05-10T15:42:15;16.22;27.20
69715;HTU21D;56981;53.532;49.398;2023-05-10T15:44:41;16.16;27.28
69715;HTU21D;56981;53.532;49.398;2023-05-10T15:47:09;16.10;27.78
69715;HTU21D;56981;53.532;49.398;2023-05-10T15:49:35;16.05;28.04
69715;HTU21D;56981;53.532;49.398;2023-05-10T15:52:01;15.98;27.91